sensor_id;sensor_type;location;lat;lon;timestamp;P1;durP1;ratioP1;P2;durP2;ratioP2
35969;SDS011;22448;51.298;6.430;2023-12-20T00:02:18;63.65;;;24.15;;
35969;SDS011;22448;51.298;6.430;2023-12-20T00:04:45;59.45;;;23.23;;
35969;SDS011;22448;51.298;6.430;2023-12-20T00:07:12;54.17;;;23.60;;
35969;SDS011;22448;51.298;6.430;2023-12-20T00:09:39;51.80;;;22.38;;
35969;SDS011;22448;51.298;6.430;2023-12-20T00:12:07;53.08;;;21.83;;
35969;SDS011;22448;51.298;6.430;2023-12-20T00:14:34;63.33;;;25.05;;
35969;SDS011;22448;51.298;6.430;2023-12-20T00:17:01;65.35;;;22.55;;
35969;SDS011;22448;51.298;6.430;2023-12-20T00:19:28;48.63;;;20.42;;
35969;SDS011;22448;51.298;6.430;2023-12-20T00:21:56;46.75;;;20.15;;
35969;SDS011;22448;51.298;6.430;2023-12-20T00:24:23;55.15;;;19.58;;
35969;SDS011;22448;51.298;6.430;2023-12-20T00:26:50;48.83;;;18.10;;
35969;SDS011;22448;51.298;6.430;2023-12-20T00:29:17;46.97;;;16.95;;
35969;SDS011;22448;51.298;6.430;2023-12-20T00:31:44;53.72;;;18.45;;
35969;SDS011;22448;51.298;6.430;2023-12-20T00:34:11;44.58;;;17.63;;
35969;SDS011;22448;51.298;6.430;2023-12-20T00:36:39;52.92;;;20.35;;
35969;SDS011;22448;51.298;6.430;2023-12-20T00:39:06;53.53;;;18.55;;
35969;SDS011;22448;51.298;6.430;2023-12-20T00:41:33;53.13;;;20.88;;
35969;SDS011;22448;51.298;6.430;2023-12-20T00:44:00;62.13;;;25.45;;
35969;SDS011;22448;51.298;6.430;2023-12-20T00:46:27;73.25;;;27.88;;
35969;SDS011;22448;51.298;6.430;2023-12-20T00:48:54;60.80;;;26.40;;
35969;SDS011;22448;51.298;6.430;2023-12-20T00:51:22;62.67;;;27.88;;
35969;SDS011;22448;51.298;6.430;2023-12-20T00:53:50;65.90;;;30.60;;
35969;SDS011;22448;51.298;6.430;2023-12-20T00:56:21;65.03;;;29.27;;
35969;SDS011;22448;51.298;6.430;2023-12-20T00:58:48;74.47;;;31.65;;
35969;SDS011;22448;51.298;6.430;2023-12-20T01:01:16;79.18;;;32.38;;
35969;SDS011;22448;51.298;6.430;2023-12-20T01:03:43;74.38;;;32.97;;
35969;SDS011;22448;51.298;6.430;2023-12-20T01:06:11;65.47;;;32.25;;
35969;SDS011;22448;51.298;6.430;2023-12-20T01:08:38;56.92;;;29.35;;
35969;SDS011;22448;51.298;6.430;2023-12-20T01:11:05;72.20;;;30.38;;
35969;SDS011;22448;51.298;6.430;2023-12-20T01:13:32;66.25;;;28.02;;
35969;SDS011;22448;51.298;6.430;2023-12-20T01:16:00;61.33;;;27.63;;
35969;SDS011;22448;51.298;6.430;2023-12-20T01:18:27;66.85;;;27.45;;
35969;SDS011;22448;51.298;6.430;2023-12-20T01:20:54;54.10;;;25.17;;
35969;SDS011;22448;51.298;6.430;2023-12-20T01:23:22;49.90;;;23.52;;
35969;SDS011;22448;51.298;6.430;2023-12-20T01:25:49;54.83;;;22.20;;
35969;SDS011;22448;51.298;6.430;2023-12-20T01:28:16;48.67;;;23.42;;
35969;SDS011;22448;51.298;6.430;2023-12-20T01:30:43;54.30;;;21.30;;
35969;SDS011;22448;51.298;6.430;2023-12-20T01:33:11;42.72;;;19.42;;
35969;SDS011;22448;51.298;6.430;2023-12-20T01:35:38;50.03;;;19.52;;
35969;SDS011;22448;51.298;6.430;2023-12-20T01:38:05;46.17;;;18.85;;
35969;SDS011;22448;51.298;6.430;2023-12-20T01:43:24;41.88;;;15.32;;
35969;SDS011;22448;51.298;6.430;2023-12-20T01:45:56;38.55;;;14.65;;
35969;SDS011;22448;51.298;6.430;2023-12-20T01:48:24;42.75;;;13.35;;
35969;SDS011;22448;51.298;6.430;2023-12-20T01:50:52;38.22;;;13.50;;
35969;SDS011;22448;51.298;6.430;2023-12-20T01:53:20;39.42;;;12.65;;
35969;SDS011;22448;51.298;6.430;2023-12-20T01:55:50;38.20;;;11.52;;
35969;SDS011;22448;51.298;6.430;2023-12-20T01:58:18;33.47;;;11.25;;
35969;SDS011;22448;51.298;6.430;2023-12-20T02:00:46;33.88;;;10.90;;
35969;SDS011;22448;51.298;6.430;2023-12-20T02:03:14;48.70;;;10.82;;
35969;SDS011;22448;51.298;6.430;2023-12-20T02:05:41;35.15;;;9.77;;
35969;SDS011;22448;51.298;6.430;2023-12-20T02:08:08;29.63;;;9.23;;
35969;SDS011;22448;51.298;6.430;2023-12-20T02:10:35;31.67;;;8.70;;
35969;SDS011;22448;51.298;6.430;2023-12-20T02:13:03;34.90;;;10.10;;
35969;SDS011;22448;51.298;6.430;2023-12-20T02:15:31;34.53;;;8.80;;
35969;SDS011;22448;51.298;6.430;2023-12-20T02:17:58;27.40;;;8.70;;
35969;SDS011;22448;51.298;6.430;2023-12-20T02:20:25;31.20;;;8.43;;
35969;SDS011;22448;51.298;6.430;2023-12-20T02:22:53;34.20;;;7.82;;
35969;SDS011;22448;51.298;6.430;2023-12-20T02:25:20;35.55;;;7.47;;
35969;SDS011;22448;51.298;6.430;2023-12-20T02:27:48;31.73;;;7.97;;
35969;SDS011;22448;51.298;6.430;2023-12-20T02:30:15;29.88;;;7.20;;
35969;SDS011;22448;51.298;6.430;2023-12-20T02:32:42;30.23;;;6.50;;
35969;SDS011;22448;51.298;6.430;2023-12-20T02:35:10;41.15;;;6.93;;
35969;SDS011;22448;51.298;6.430;2023-12-20T02:37:37;25.88;;;5.90;;
35969;SDS011;22448;51.298;6.430;2023-12-20T02:40:04;37.30;;;5.90;;
35969;SDS011;22448;51.298;6.430;2023-12-20T02:42:32;36.33;;;5.72;;
35969;SDS011;22448;51.298;6.430;2023-12-20T02:44:59;35.03;;;5.40;;
35969;SDS011;22448;51.298;6.430;2023-12-20T02:47:26;27.20;;;5.10;;
35969;SDS011;22448;51.298;6.430;2023-12-20T02:49:53;30.38;;;5.75;;
35969;SDS011;22448;51.298;6.430;2023-12-20T02:52:21;37.72;;;4.75;;
35969;SDS011;22448;51.298;6.430;2023-12-20T02:54:49;29.77;;;6.00;;
35969;SDS011;22448;51.298;6.430;2023-12-20T02:57:16;37.42;;;5.38;;
35969;SDS011;22448;51.298;6.430;2023-12-20T02:59:43;26.40;;;4.55;;
35969;SDS011;22448;51.298;6.430;2023-12-20T03:02:10;29.75;;;4.78;;
35969;SDS011;22448;51.298;6.430;2023-12-20T03:04:38;33.20;;;6.60;;
35969;SDS011;22448;51.298;6.430;2023-12-20T03:07:05;33.95;;;6.10;;
35969;SDS011;22448;51.298;6.430;2023-12-20T03:09:32;33.17;;;6.20;;
35969;SDS011;22448;51.298;6.430;2023-12-20T03:12:19;31.58;;;5.30;;
35969;SDS011;22448;51.298;6.430;2023-12-20T03:14:47;23.58;;;5.55;;
35969;SDS011;22448;51.298;6.430;2023-12-20T03:17:15;25.30;;;5.32;;
35969;SDS011;22448;51.298;6.430;2023-12-20T03:19:42;24.77;;;5.32;;
35969;SDS011;22448;51.298;6.430;2023-12-20T03:22:09;31.95;;;5.47;;
35969;SDS011;22448;51.298;6.430;2023-12-20T03:24:36;29.63;;;5.40;;
35969;SDS011;22448;51.298;6.430;2023-12-20T03:27:03;28.10;;;5.47;;
35969;SDS011;22448;51.298;6.430;2023-12-20T03:29:30;42.65;;;6.10;;
35969;SDS011;22448;51.298;6.430;2023-12-20T03:31:57;25.52;;;5.15;;
35969;SDS011;22448;51.298;6.430;2023-12-20T03:34:24;34.33;;;5.88;;
35969;SDS011;22448;51.298;6.430;2023-12-20T03:36:52;30.73;;;6.05;;
35969;SDS011;22448;51.298;6.430;2023-12-20T03:39:20;32.25;;;6.30;;
35969;SDS011;22448;51.298;6.430;2023-12-20T03:41:47;31.15;;;5.90;;
35969;SDS011;22448;51.298;6.430;2023-12-20T03:44:14;33.95;;;5.80;;
35969;SDS011;22448;51.298;6.430;2023-12-20T03:46:41;44.55;;;7.68;;
35969;SDS011;22448;51.298;6.430;2023-12-20T03:49:08;35.22;;;6.50;;
35969;SDS011;22448;51.298;6.430;2023-12-20T03:51:35;34.40;;;6.15;;
35969;SDS011;22448;51.298;6.430;2023-12-20T03:54:02;42.05;;;7.30;;
35969;SDS011;22448;51.298;6.430;2023-12-20T03:56:29;31.63;;;7.70;;
35969;SDS011;22448;51.298;6.430;2023-12-20T03:58:56;33.17;;;7.03;;
35969;SDS011;22448;51.298;6.430;2023-12-20T04:01:23;36.58;;;7.15;;
35969;SDS011;22448;51.298;6.430;2023-12-20T04:03:50;40.75;;;8.40;;
35969;SDS011;22448;51.298;6.430;2023-12-20T04:06:18;33.72;;;8.20;;
35969;SDS011;22448;51.298;6.430;2023-12-20T04:08:45;43.50;;;8.90;;
35969;SDS011;22448;51.298;6.430;2023-12-20T04:11:13;46.88;;;9.95;;
35969;SDS011;22448;51.298;6.430;2023-12-20T04:13:40;31.92;;;8.80;;
35969;SDS011;22448;51.298;6.430;2023-12-20T04:16:07;40.13;;;10.02;;
35969;SDS011;22448;51.298;6.430;2023-12-20T04:18:34;41.92;;;9.75;;
35969;SDS011;22448;51.298;6.430;2023-12-20T04:21:01;34.78;;;10.15;;
35969;SDS011;22448;51.298;6.430;2023-12-20T04:23:28;44.03;;;10.30;;
35969;SDS011;22448;51.298;6.430;2023-12-20T04:25:56;46.92;;;11.70;;
35969;SDS011;22448;51.298;6.430;2023-12-20T04:28:23;46.85;;;11.63;;
35969;SDS011;22448;51.298;6.430;2023-12-20T04:30:50;53.47;;;13.10;;
35969;SDS011;22448;51.298;6.430;2023-12-20T04:33:17;42.88;;;12.70;;
35969;SDS011;22448;51.298;6.430;2023-12-20T04:35:44;45.60;;;13.20;;
35969;SDS011;22448;51.298;6.430;2023-12-20T04:38:12;35.15;;;12.05;;
35969;SDS011;22448;51.298;6.430;2023-12-20T04:40:39;55.45;;;12.15;;
35969;SDS011;22448;51.298;6.430;2023-12-20T04:43:07;42.63;;;12.18;;
35969;SDS011;22448;51.298;6.430;2023-12-20T04:45:35;39.75;;;11.05;;
35969;SDS011;22448;51.298;6.430;2023-12-20T04:48:03;51.63;;;11.32;;
35969;SDS011;22448;51.298;6.430;2023-12-20T04:50:31;48.45;;;11.93;;
35969;SDS011;22448;51.298;6.430;2023-12-20T04:52:58;53.30;;;11.95;;
35969;SDS011;22448;51.298;6.430;2023-12-20T04:55:25;45.50;;;12.75;;
35969;SDS011;22448;51.298;6.430;2023-12-20T04:57:52;42.30;;;11.15;;
35969;SDS011;22448;51.298;6.430;2023-12-20T05:00:19;57.22;;;12.13;;
35969;SDS011;22448;51.298;6.430;2023-12-20T05:02:46;60.25;;;13.07;;
35969;SDS011;22448;51.298;6.430;2023-12-20T05:05:13;46.20;;;11.95;;
35969;SDS011;22448;51.298;6.430;2023-12-20T05:07:41;43.83;;;11.32;;
35969;SDS011;22448;51.298;6.430;2023-12-20T05:10:09;43.72;;;10.82;;
35969;SDS011;22448;51.298;6.430;2023-12-20T05:12:36;46.67;;;10.68;;
35969;SDS011;22448;51.298;6.430;2023-12-20T05:15:05;47.97;;;10.43;;
35969;SDS011;22448;51.298;6.430;2023-12-20T05:17:33;42.70;;;11.52;;
35969;SDS011;22448;51.298;6.430;2023-12-20T05:20:00;45.45;;;10.35;;
35969;SDS011;22448;51.298;6.430;2023-12-20T05:22:27;45.63;;;11.50;;
35969;SDS011;22448;51.298;6.430;2023-12-20T05:24:54;42.97;;;10.02;;
35969;SDS011;22448;51.298;6.430;2023-12-20T05:27:22;47.00;;;10.63;;
35969;SDS011;22448;51.298;6.430;2023-12-20T05:29:49;41.90;;;10.38;;
35969;SDS011;22448;51.298;6.430;2023-12-20T05:32:16;44.17;;;11.23;;
35969;SDS011;22448;51.298;6.430;2023-12-20T05:34:43;44.05;;;10.63;;
35969;SDS011;22448;51.298;6.430;2023-12-20T05:37:10;54.75;;;10.85;;
35969;SDS011;22448;51.298;6.430;2023-12-20T05:39:38;53.55;;;11.20;;
35969;SDS011;22448;51.298;6.430;2023-12-20T05:42:05;42.70;;;11.10;;
35969;SDS011;22448;51.298;6.430;2023-12-20T05:44:32;46.10;;;10.20;;
35969;SDS011;22448;51.298;6.430;2023-12-20T05:46:59;45.60;;;9.75;;
35969;SDS011;22448;51.298;6.430;2023-12-20T05:49:26;47.65;;;10.45;;
35969;SDS011;22448;51.298;6.430;2023-12-20T05:51:53;51.65;;;10.45;;
35969;SDS011;22448;51.298;6.430;2023-12-20T05:54:20;43.25;;;10.68;;
35969;SDS011;22448;51.298;6.430;2023-12-20T05:56:48;39.97;;;9.55;;
35969;SDS011;22448;51.298;6.430;2023-12-20T05:59:15;38.30;;;9.15;;
35969;SDS011;22448;51.298;6.430;2023-12-20T06:01:42;47.15;;;9.07;;
35969;SDS011;22448;51.298;6.430;2023-12-20T06:04:10;40.75;;;9.63;;
35969;SDS011;22448;51.298;6.430;2023-12-20T06:06:41;46.95;;;9.55;;
35969;SDS011;22448;51.298;6.430;2023-12-20T06:09:09;39.25;;;8.80;;
35969;SDS011;22448;51.298;6.430;2023-12-20T06:11:36;34.13;;;8.10;;
35969;SDS011;22448;51.298;6.430;2023-12-20T06:14:04;45.42;;;9.60;;
35969;SDS011;22448;51.298;6.430;2023-12-20T06:16:31;35.90;;;8.70;;
35969;SDS011;22448;51.298;6.430;2023-12-20T06:18:58;35.47;;;8.43;;
35969;SDS011;22448;51.298;6.430;2023-12-20T06:21:25;39.30;;;9.25;;
35969;SDS011;22448;51.298;6.430;2023-12-20T06:23:52;44.92;;;8.98;;
35969;SDS011;22448;51.298;6.430;2023-12-20T06:26:19;40.47;;;9.80;;
35969;SDS011;22448;51.298;6.430;2023-12-20T06:28:46;41.83;;;9.88;;
35969;SDS011;22448;51.298;6.430;2023-12-20T06:31:14;47.17;;;10.05;;
35969;SDS011;22448;51.298;6.430;2023-12-20T06:33:42;39.38;;;10.70;;
35969;SDS011;22448;51.298;6.430;2023-12-20T06:36:13;44.45;;;8.65;;
35969;SDS011;22448;51.298;6.430;2023-12-20T06:38:40;60.03;;;11.43;;
35969;SDS011;22448;51.298;6.430;2023-12-20T06:41:08;39.33;;;9.50;;
35969;SDS011;22448;51.298;6.430;2023-12-20T06:43:40;44.88;;;10.45;;
35969;SDS011;22448;51.298;6.430;2023-12-20T06:46:15;41.13;;;9.52;;
35969;SDS011;22448;51.298;6.430;2023-12-20T06:48:44;41.58;;;10.30;;
35969;SDS011;22448;51.298;6.430;2023-12-20T06:51:14;46.85;;;10.07;;
35969;SDS011;22448;51.298;6.430;2023-12-20T06:53:42;42.65;;;9.90;;
35969;SDS011;22448;51.298;6.430;2023-12-20T06:56:10;45.85;;;9.75;;
35969;SDS011;22448;51.298;6.430;2023-12-20T06:58:43;40.67;;;8.02;;
35969;SDS011;22448;51.298;6.430;2023-12-20T07:01:11;51.80;;;9.00;;
35969;SDS011;22448;51.298;6.430;2023-12-20T07:03:38;46.55;;;8.70;;
35969;SDS011;22448;51.298;6.430;2023-12-20T07:06:06;45.83;;;7.97;;
35969;SDS011;22448;51.298;6.430;2023-12-20T07:08:34;50.78;;;8.43;;
35969;SDS011;22448;51.298;6.430;2023-12-20T07:11:01;45.20;;;8.57;;
35969;SDS011;22448;51.298;6.430;2023-12-20T07:13:29;53.85;;;8.10;;
35969;SDS011;22448;51.298;6.430;2023-12-20T07:15:56;45.58;;;9.02;;
35969;SDS011;22448;51.298;6.430;2023-12-20T07:18:23;34.53;;;7.88;;
35969;SDS011;22448;51.298;6.430;2023-12-20T07:20:50;34.25;;;8.85;;
35969;SDS011;22448;51.298;6.430;2023-12-20T07:23:17;40.15;;;8.77;;
35969;SDS011;22448;51.298;6.430;2023-12-20T07:25:46;42.25;;;9.65;;
35969;SDS011;22448;51.298;6.430;2023-12-20T07:28:13;50.15;;;9.82;;
35969;SDS011;22448;51.298;6.430;2023-12-20T07:30:40;41.10;;;10.00;;
35969;SDS011;22448;51.298;6.430;2023-12-20T07:33:08;40.38;;;9.75;;
35969;SDS011;22448;51.298;6.430;2023-12-20T07:35:36;38.13;;;9.80;;
35969;SDS011;22448;51.298;6.430;2023-12-20T07:38:03;54.65;;;10.40;;
35969;SDS011;22448;51.298;6.430;2023-12-20T07:40:31;43.08;;;11.10;;
35969;SDS011;22448;51.298;6.430;2023-12-20T07:42:58;52.58;;;10.55;;
35969;SDS011;22448;51.298;6.430;2023-12-20T07:45:25;35.03;;;9.38;;
35969;SDS011;22448;51.298;6.430;2023-12-20T07:47:52;41.85;;;9.68;;
35969;SDS011;22448;51.298;6.430;2023-12-20T07:50:19;34.25;;;8.90;;
35969;SDS011;22448;51.298;6.430;2023-12-20T07:52:47;41.75;;;10.57;;
35969;SDS011;22448;51.298;6.430;2023-12-20T07:55:14;40.22;;;9.57;;
35969;SDS011;22448;51.298;6.430;2023-12-20T07:57:42;41.10;;;9.07;;
35969;SDS011;22448;51.298;6.430;2023-12-20T08:00:10;34.38;;;9.52;;
35969;SDS011;22448;51.298;6.430;2023-12-20T08:02:37;54.13;;;8.88;;
35969;SDS011;22448;51.298;6.430;2023-12-20T08:05:04;41.78;;;9.18;;
35969;SDS011;22448;51.298;6.430;2023-12-20T08:07:32;43.50;;;9.45;;
35969;SDS011;22448;51.298;6.430;2023-12-20T08:09:59;30.10;;;8.32;;
35969;SDS011;22448;51.298;6.430;2023-12-20T08:12:26;48.30;;;9.02;;
35969;SDS011;22448;51.298;6.430;2023-12-20T08:14:54;36.05;;;8.32;;
35969;SDS011;22448;51.298;6.430;2023-12-20T08:17:21;45.55;;;8.52;;
35969;SDS011;22448;51.298;6.430;2023-12-20T08:19:50;35.22;;;8.38;;
35969;SDS011;22448;51.298;6.430;2023-12-20T08:22:17;41.83;;;8.02;;
35969;SDS011;22448;51.298;6.430;2023-12-20T08:24:45;35.13;;;7.90;;
35969;SDS011;22448;51.298;6.430;2023-12-20T08:27:12;35.33;;;7.93;;
35969;SDS011;22448;51.298;6.430;2023-12-20T08:29:39;50.78;;;10.32;;
35969;SDS011;22448;51.298;6.430;2023-12-20T08:32:06;47.58;;;8.07;;
35969;SDS011;22448;51.298;6.430;2023-12-20T08:34:33;40.13;;;7.82;;
35969;SDS011;22448;51.298;6.430;2023-12-20T08:37:00;39.40;;;8.10;;
35969;SDS011;22448;51.298;6.430;2023-12-20T08:39:27;47.13;;;9.23;;
35969;SDS011;22448;51.298;6.430;2023-12-20T08:41:56;36.83;;;7.88;;
35969;SDS011;22448;51.298;6.430;2023-12-20T08:44:23;33.88;;;6.63;;
35969;SDS011;22448;51.298;6.430;2023-12-20T08:46:50;34.72;;;7.45;;
35969;SDS011;22448;51.298;6.430;2023-12-20T08:49:17;29.98;;;7.75;;
35969;SDS011;22448;51.298;6.430;2023-12-20T08:51:44;33.13;;;6.65;;
35969;SDS011;22448;51.298;6.430;2023-12-20T08:54:11;38.28;;;6.78;;
35969;SDS011;22448;51.298;6.430;2023-12-20T08:56:39;33.88;;;6.13;;
35969;SDS011;22448;51.298;6.430;2023-12-20T08:59:06;38.75;;;6.32;;
35969;SDS011;22448;51.298;6.430;2023-12-20T09:01:33;36.20;;;6.35;;
35969;SDS011;22448;51.298;6.430;2023-12-20T09:04:00;32.38;;;6.00;;
35969;SDS011;22448;51.298;6.430;2023-12-20T09:06:28;27.00;;;5.53;;
35969;SDS011;22448;51.298;6.430;2023-12-20T09:08:55;43.55;;;7.25;;
35969;SDS011;22448;51.298;6.430;2023-12-20T09:11:22;32.45;;;5.95;;
35969;SDS011;22448;51.298;6.430;2023-12-20T09:13:49;29.88;;;6.13;;
35969;SDS011;22448;51.298;6.430;2023-12-20T09:16:16;39.45;;;5.13;;
35969;SDS011;22448;51.298;6.430;2023-12-20T09:18:43;37.90;;;5.78;;
35969;SDS011;22448;51.298;6.430;2023-12-20T09:21:11;27.65;;;5.65;;
35969;SDS011;22448;51.298;6.430;2023-12-20T09:23:38;38.60;;;6.45;;
35969;SDS011;22448;51.298;6.430;2023-12-20T09:26:06;28.38;;;5.97;;
35969;SDS011;22448;51.298;6.430;2023-12-20T09:28:33;28.30;;;5.70;;
35969;SDS011;22448;51.298;6.430;2023-12-20T09:31:04;31.13;;;6.22;;
35969;SDS011;22448;51.298;6.430;2023-12-20T09:33:32;45.75;;;6.25;;
35969;SDS011;22448;51.298;6.430;2023-12-20T09:36:00;37.83;;;6.03;;
35969;SDS011;22448;51.298;6.430;2023-12-20T09:38:27;26.77;;;5.82;;
35969;SDS011;22448;51.298;6.430;2023-12-20T09:40:55;28.83;;;5.88;;
35969;SDS011;22448;51.298;6.430;2023-12-20T09:43:23;30.88;;;6.53;;
35969;SDS011;22448;51.298;6.430;2023-12-20T09:45:52;27.35;;;5.75;;
35969;SDS011;22448;51.298;6.430;2023-12-20T09:48:20;31.27;;;6.03;;
35969;SDS011;22448;51.298;6.430;2023-12-20T09:50:48;38.15;;;5.45;;
35969;SDS011;22448;51.298;6.430;2023-12-20T09:53:19;23.13;;;5.75;;
35969;SDS011;22448;51.298;6.430;2023-12-20T09:55:47;27.65;;;6.18;;
35969;SDS011;22448;51.298;6.430;2023-12-20T09:58:15;32.28;;;5.18;;
35969;SDS011;22448;51.298;6.430;2023-12-20T10:00:43;29.23;;;5.65;;
35969;SDS011;22448;51.298;6.430;2023-12-20T10:03:10;24.98;;;5.30;;
35969;SDS011;22448;51.298;6.430;2023-12-20T10:05:40;34.60;;;6.40;;
35969;SDS011;22448;51.298;6.430;2023-12-20T10:08:11;31.25;;;9.20;;
35969;SDS011;22448;51.298;6.430;2023-12-20T10:10:38;28.50;;;5.43;;
35969;SDS011;22448;51.298;6.430;2023-12-20T10:13:14;35.38;;;6.78;;
35969;SDS011;22448;51.298;6.430;2023-12-20T10:15:42;36.50;;;6.25;;
35969;SDS011;22448;51.298;6.430;2023-12-20T10:18:12;26.35;;;5.22;;
35969;SDS011;22448;51.298;6.430;2023-12-20T10:20:40;31.08;;;6.20;;
35969;SDS011;22448;51.298;6.430;2023-12-20T10:23:08;34.88;;;7.38;;
35969;SDS011;22448;51.298;6.430;2023-12-20T10:25:36;63.22;;;14.35;;
35969;SDS011;22448;51.298;6.430;2023-12-20T10:28:13;44.03;;;8.20;;
35969;SDS011;22448;51.298;6.430;2023-12-20T10:30:41;28.42;;;5.47;;
35969;SDS011;22448;51.298;6.430;2023-12-20T10:33:09;32.53;;;6.07;;
35969;SDS011;22448;51.298;6.430;2023-12-20T10:35:38;32.65;;;5.53;;
35969;SDS011;22448;51.298;6.430;2023-12-20T10:38:10;33.47;;;6.05;;
35969;SDS011;22448;51.298;6.430;2023-12-20T10:40:40;25.60;;;6.03;;
35969;SDS011;22448;51.298;6.430;2023-12-20T10:43:08;30.40;;;5.15;;
35969;SDS011;22448;51.298;6.430;2023-12-20T10:45:36;32.22;;;5.72;;
35969;SDS011;22448;51.298;6.430;2023-12-20T10:48:03;31.40;;;5.70;;
35969;SDS011;22448;51.298;6.430;2023-12-20T10:50:31;29.95;;;6.55;;
35969;SDS011;22448;51.298;6.430;2023-12-20T10:52:59;37.03;;;5.53;;
35969;SDS011;22448;51.298;6.430;2023-12-20T10:55:27;31.33;;;5.30;;
35969;SDS011;22448;51.298;6.430;2023-12-20T10:57:59;25.25;;;5.55;;
35969;SDS011;22448;51.298;6.430;2023-12-20T11:00:29;28.52;;;5.30;;
35969;SDS011;22448;51.298;6.430;2023-12-20T11:03:01;26.95;;;5.07;;
35969;SDS011;22448;51.298;6.430;2023-12-20T11:05:49;31.02;;;5.22;;
35969;SDS011;22448;51.298;6.430;2023-12-20T11:08:35;35.83;;;5.38;;
35969;SDS011;22448;51.298;6.430;2023-12-20T11:11:24;19.73;;;4.65;;
35969;SDS011;22448;51.298;6.430;2023-12-20T11:14:06;23.75;;;5.88;;
35969;SDS011;22448;51.298;6.430;2023-12-20T11:16:37;30.95;;;4.95;;
35969;SDS011;22448;51.298;6.430;2023-12-20T11:19:17;33.17;;;4.97;;
35969;SDS011;22448;51.298;6.430;2023-12-20T11:21:45;31.10;;;5.65;;
35969;SDS011;22448;51.298;6.430;2023-12-20T11:24:12;20.77;;;4.57;;
35969;SDS011;22448;51.298;6.430;2023-12-20T11:26:46;20.45;;;4.75;;
35969;SDS011;22448;51.298;6.430;2023-12-20T11:32:27;34.42;;;5.60;;
35969;SDS011;22448;51.298;6.430;2023-12-20T11:34:53;27.45;;;5.60;;
35969;SDS011;22448;51.298;6.430;2023-12-20T11:37:25;31.25;;;5.95;;
35969;SDS011;22448;51.298;6.430;2023-12-20T11:40:08;32.88;;;6.00;;
35969;SDS011;22448;51.298;6.430;2023-12-20T11:42:39;23.77;;;5.18;;
35969;SDS011;22448;51.298;6.430;2023-12-20T11:45:14;28.83;;;5.75;;
35969;SDS011;22448;51.298;6.430;2023-12-20T11:47:42;30.85;;;5.43;;
35969;SDS011;22448;51.298;6.430;2023-12-20T11:50:12;35.03;;;5.80;;
35969;SDS011;22448;51.298;6.430;2023-12-20T11:52:39;24.15;;;5.18;;
35969;SDS011;22448;51.298;6.430;2023-12-20T11:55:06;29.13;;;7.22;;
35969;SDS011;22448;51.298;6.430;2023-12-20T11:57:33;28.15;;;5.90;;
35969;SDS011;22448;51.298;6.430;2023-12-20T12:00:02;41.78;;;5.45;;
35969;SDS011;22448;51.298;6.430;2023-12-20T12:02:37;38.03;;;5.43;;
35969;SDS011;22448;51.298;6.430;2023-12-20T12:05:04;30.58;;;6.03;;
35969;SDS011;22448;51.298;6.430;2023-12-20T12:07:33;27.25;;;5.55;;
35969;SDS011;22448;51.298;6.430;2023-12-20T12:10:01;24.52;;;5.05;;
35969;SDS011;22448;51.298;6.430;2023-12-20T12:12:30;15.70;;;4.80;;
35969;SDS011;22448;51.298;6.430;2023-12-20T12:14:59;31.67;;;5.68;;
35969;SDS011;22448;51.298;6.430;2023-12-20T12:17:25;35.67;;;6.05;;
35969;SDS011;22448;51.298;6.430;2023-12-20T12:20:01;30.80;;;7.18;;
35969;SDS011;22448;51.298;6.430;2023-12-20T12:22:32;31.30;;;6.38;;
35969;SDS011;22448;51.298;6.430;2023-12-20T12:25:09;39.83;;;8.82;;
35969;SDS011;22448;51.298;6.430;2023-12-20T12:27:41;33.33;;;6.43;;
35969;SDS011;22448;51.298;6.430;2023-12-20T12:30:09;41.00;;;8.40;;
35969;SDS011;22448;51.298;6.430;2023-12-20T12:32:39;31.17;;;6.65;;
35969;SDS011;22448;51.298;6.430;2023-12-20T12:35:07;29.83;;;5.70;;
35969;SDS011;22448;51.298;6.430;2023-12-20T12:37:39;35.17;;;8.35;;
35969;SDS011;22448;51.298;6.430;2023-12-20T12:40:15;26.42;;;4.93;;
35969;SDS011;22448;51.298;6.430;2023-12-20T12:42:43;25.38;;;6.43;;
35969;SDS011;22448;51.298;6.430;2023-12-20T12:45:11;26.65;;;6.50;;
35969;SDS011;22448;51.298;6.430;2023-12-20T12:47:39;34.67;;;7.03;;
35969;SDS011;22448;51.298;6.430;2023-12-20T12:50:06;30.75;;;8.32;;
35969;SDS011;22448;51.298;6.430;2023-12-20T12:52:34;30.00;;;7.22;;
35969;SDS011;22448;51.298;6.430;2023-12-20T12:55:02;32.45;;;8.48;;
35969;SDS011;22448;51.298;6.430;2023-12-20T12:57:31;31.38;;;7.55;;
35969;SDS011;22448;51.298;6.430;2023-12-20T12:59:58;38.88;;;7.80;;
35969;SDS011;22448;51.298;6.430;2023-12-20T13:02:25;38.97;;;8.23;;
35969;SDS011;22448;51.298;6.430;2023-12-20T13:04:52;32.92;;;8.80;;
35969;SDS011;22448;51.298;6.430;2023-12-20T13:07:20;27.60;;;8.45;;
35969;SDS011;22448;51.298;6.430;2023-12-20T13:09:47;41.45;;;9.50;;
35969;SDS011;22448;51.298;6.430;2023-12-20T13:12:14;48.47;;;9.70;;
35969;SDS011;22448;51.298;6.430;2023-12-20T13:14:41;38.47;;;8.10;;
35969;SDS011;22448;51.298;6.430;2023-12-20T13:17:08;45.65;;;9.32;;
35969;SDS011;22448;51.298;6.430;2023-12-20T13:19:36;24.10;;;8.32;;
35969;SDS011;22448;51.298;6.430;2023-12-20T13:22:03;35.17;;;10.25;;
35969;SDS011;22448;51.298;6.430;2023-12-20T13:24:30;38.03;;;10.05;;
35969;SDS011;22448;51.298;6.430;2023-12-20T13:26:59;41.78;;;11.93;;
35969;SDS011;22448;51.298;6.430;2023-12-20T13:29:26;33.83;;;11.15;;
35969;SDS011;22448;51.298;6.430;2023-12-20T13:31:55;42.38;;;9.98;;
35969;SDS011;22448;51.298;6.430;2023-12-20T13:34:24;43.92;;;12.23;;
35969;SDS011;22448;51.298;6.430;2023-12-20T13:36:51;39.75;;;11.90;;
35969;SDS011;22448;51.298;6.430;2023-12-20T13:39:20;32.47;;;11.63;;
35969;SDS011;22448;51.298;6.430;2023-12-20T13:41:48;32.30;;;10.27;;
35969;SDS011;22448;51.298;6.430;2023-12-20T13:44:15;39.17;;;11.88;;
35969;SDS011;22448;51.298;6.430;2023-12-20T13:46:42;35.85;;;9.60;;
35969;SDS011;22448;51.298;6.430;2023-12-20T13:49:09;33.38;;;11.93;;
35969;SDS011;22448;51.298;6.430;2023-12-20T13:51:36;46.22;;;16.10;;
35969;SDS011;22448;51.298;6.430;2023-12-20T13:54:03;43.78;;;12.60;;
35969;SDS011;22448;51.298;6.430;2023-12-20T13:56:30;27.85;;;9.25;;
35969;SDS011;22448;51.298;6.430;2023-12-20T13:59:09;30.23;;;9.02;;
35969;SDS011;22448;51.298;6.430;2023-12-20T14:01:36;38.92;;;9.40;;
35969;SDS011;22448;51.298;6.430;2023-12-20T14:04:04;33.28;;;8.13;;
35969;SDS011;22448;51.298;6.430;2023-12-20T14:06:30;28.13;;;8.43;;
35969;SDS011;22448;51.298;6.430;2023-12-20T14:08:57;33.72;;;8.43;;
35969;SDS011;22448;51.298;6.430;2023-12-20T14:11:26;37.33;;;9.43;;
35969;SDS011;22448;51.298;6.430;2023-12-20T14:13:53;31.83;;;9.50;;
35969;SDS011;22448;51.298;6.430;2023-12-20T14:16:24;28.10;;;8.55;;
35969;SDS011;22448;51.298;6.430;2023-12-20T14:18:51;29.50;;;8.52;;
35969;SDS011;22448;51.298;6.430;2023-12-20T14:21:19;27.65;;;7.45;;
35969;SDS011;22448;51.298;6.430;2023-12-20T14:23:46;24.05;;;7.95;;
35969;SDS011;22448;51.298;6.430;2023-12-20T14:26:15;28.33;;;7.43;;
35969;SDS011;22448;51.298;6.430;2023-12-20T14:28:42;28.02;;;8.02;;
35969;SDS011;22448;51.298;6.430;2023-12-20T14:31:10;34.88;;;8.23;;
35969;SDS011;22448;51.298;6.430;2023-12-20T14:33:37;21.55;;;7.43;;
35969;SDS011;22448;51.298;6.430;2023-12-20T14:36:05;34.83;;;8.65;;
35969;SDS011;22448;51.298;6.430;2023-12-20T14:38:33;30.45;;;7.18;;
35969;SDS011;22448;51.298;6.430;2023-12-20T14:41:00;40.08;;;8.63;;
35969;SDS011;22448;51.298;6.430;2023-12-20T14:43:30;34.05;;;7.90;;